Time;durP1;ratioP1;P1;durP2;ratioP2;P2;SDS_P1;SDS_P2;PMS_P1;PMS_P2;Temp;Humidity;BMP_temperature;BMP_pressure;BME280_temperature;BME280_humidity;BME280_pressure;Samples;Min_cycle;Max_cycle;Signal;HPM_P1;HPM_P2
2022/06/06 00:01:52;;;;;;;26.10;19.90;;;;;;;14.37;100.00;101369.47;5052584;28;20056;-36
2022/06/06 00:04:19;;;;;;;27.83;18.25;;;;;;;14.42;100.00;101371.44;5052162;28;20271;-36
2022/06/06 00:06:44;;;;;;;25.80;18.27;;;;;;;14.47;100.00;101377.00;5053540;28;20033;-36
2022/06/06 00:09:12;;;;;;;29.52;19.55;;;;;;;14.45;100.00;101383.75;5053169;28;20171;-36
2022/06/06 00:11:37;;;;;;;22.58;17.85;;;;;;;14.40;100.00;101370.88;5053514;28;20029;-36
2022/06/06 00:14:04;;;;;;;;;;;;;;;14.54;100.00;101383.16;5052893;28;20045;-36
2022/06/06 00:16:29;;;;;;;26.45;18.67;;;;;;;14.50;100.00;101384.72;5053400;28;19909;-36
2022/06/06 00:18:55;;;;;;;26.85;17.67;;;;;;;14.51;100.00;101385.53;5053346;28;20033;-36
2022/06/06 00:21:20;;;;;;;;;;;;;;;14.57;100.00;101381.81;5052927;28;20472;-36
2022/06/06 00:23:45;;;;;;;24.55;15.93;;;;;;;14.50;100.00;101371.09;5052515;28;19913;-36
2022/06/06 00:26:13;;;;;;;24.30;17.67;;;;;;;14.52;100.00;101390.72;5052555;28;20138;-36
2022/06/06 00:28:43;;;;;;;22.38;17.20;;;;;;;14.51;100.00;101386.34;5052838;28;20287;-35
2022/06/06 00:36:38;;;;;;;22.55;16.50;;;;;;;14.43;100.00;101363.03;5053029;28;20048;-36
2022/06/06 00:39:06;;;;;;;23.83;17.13;;;;;;;14.46;100.00;101375.34;5052661;28;20033;-36
2022/06/06 00:41:35;;;;;;;23.10;17.52;;;;;;;14.42;100.00;101375.00;5052922;28;20448;-36
2022/06/06 00:44:03;;;;;;;22.50;17.58;;;;;;;14.35;100.00;101359.91;5052398;28;20056;-36
2022/06/06 00:46:30;;;;;;;22.65;17.70;;;;;;;14.42;100.00;101369.56;5052825;28;20025;-36
2022/06/06 00:48:55;;;;;;;26.42;19.05;;;;;;;14.41;100.00;101369.81;5052682;28;20028;-36
2022/06/06 00:51:20;;;;;;;26.85;19.70;;;;;;;14.39;100.00;101371.94;5052992;28;20389;-36
2022/06/06 00:53:48;;;;;;;;;;;;;;;14.45;100.00;101373.69;5052413;28;20107;-36
2022/06/06 00:56:23;;;;;;;23.42;18.15;;;;;;;14.39;100.00;101369.22;5052471;28;19916;-36
2022/06/06 00:58:53;;;;;;;25.88;19.10;;;;;;;14.34;100.00;101367.22;5052963;28;20037;-35
2022/06/06 01:01:19;;;;;;;23.33;18.27;;;;;;;14.32;100.00;101358.47;5052346;28;20055;-36
2022/06/06 01:03:45;;;;;;;25.02;19.52;;;;;;;14.36;100.00;101362.38;5052964;28;20033;-36
2022/06/06 01:06:14;;;;;;;27.13;20.15;;;;;;;14.37;100.00;101360.47;5053124;28;20071;-36
2022/06/06 01:08:41;;;;;;;27.63;20.63;;;;;;;14.33;100.00;101353.88;5052057;28;20021;-35
2022/06/06 01:11:06;;;;;;;26.13;19.95;;;;;;;14.36;100.00;101364.28;5052649;28;20025;-36
2022/06/06 01:13:34;;;;;;;21.50;18.70;;;;;;;14.38;100.00;101362.13;5052268;28;20166;-36
2022/06/06 01:16:17;;;;;;;22.90;19.25;;;;;;;14.39;100.00;101363.78;5056908;28;20708;-37
2022/06/06 01:19:05;;;;;;;26.83;20.20;;;;;;;14.40;100.00;101362.72;5056492;28;20033;-36
2022/06/06 01:21:45;;;;;;;25.55;19.75;;;;;;;14.37;100.00;101363.19;5056457;28;20086;-36
2022/06/06 01:24:17;;;;;;;26.52;20.52;;;;;;;14.35;100.00;101373.50;5056227;28;20029;-36
2022/06/06 01:26:56;;;;;;;30.17;22.40;;;;;;;14.36;100.00;101358.84;5056330;28;20496;-36
2022/06/06 01:29:46;;;;;;;28.35;21.95;;;;;;;14.39;100.00;101352.88;5056652;28;20349;-36
2022/06/06 01:32:15;;;;;;;27.17;21.98;;;;;;;14.29;100.00;101347.25;5034071;28;20029;-36
2022/06/06 01:34:43;;;;;;;29.65;22.20;;;;;;;14.39;100.00;101358.31;5033797;28;20073;-36
2022/06/06 01:37:29;;;;;;;29.73;23.45;;;;;;;14.33;100.00;101348.44;5033719;28;20078;-36
2022/06/06 01:39:56;;;;;;;30.63;23.35;;;;;;;14.43;100.00;101370.38;5033752;28;20116;-36
2022/06/06 01:42:24;;;;;;;31.63;24.38;;;;;;;14.36;100.00;101378.69;5033725;28;20103;-36
2022/06/06 01:44:52;;;;;;;32.97;24.30;;;;;;;14.37;100.00;101360.47;5033951;28;20474;-36
2022/06/06 01:47:29;;;;;;;34.00;25.63;;;;;;;14.39;100.00;101366.50;5033424;28;20048;-36
2022/06/06 01:49:56;;;;;;;34.85;25.40;;;;;;;14.40;100.00;101376.31;5033260;28;20073;-36
2022/06/06 01:52:22;;;;;;;37.63;27.58;;;;;;;14.37;100.00;101365.91;5033349;28;20025;-36
2022/06/06 01:54:47;;;;;;;;;;;;;;;14.42;100.00;101361.41;5034412;28;20395;-36
2022/06/06 01:57:16;;;;;;;35.20;27.00;;;;;;;14.31;100.00;101348.69;5033433;28;19924;-36
2022/06/06 01:59:41;;;;;;;40.80;28.83;;;;;;;14.38;100.00;101353.97;5017009;28;20395;-36
2022/06/06 02:02:07;;;;;;;38.15;28.75;;;;;;;14.28;100.00;101332.00;5033138;28;20118;-36
2022/06/06 02:04:32;;;;;;;40.85;30.00;;;;;;;14.42;100.00;101360.56;5033073;28;20029;-36
2022/06/06 02:06:57;;;;;;;;;;;;;;;14.47;100.00;101349.78;5034134;28;20037;-36
2022/06/06 02:09:23;;;;;;;39.03;28.90;;;;;;;14.43;100.00;101354.88;5046271;28;19917;-37
2022/06/06 02:11:48;;;;;;;42.22;30.42;;;;;;;14.39;100.00;101350.97;5055533;28;20100;-37
2022/06/06 02:14:14;;;;;;;41.13;30.83;;;;;;;14.35;100.00;101344.41;5054712;28;20033;-37
2022/06/06 02:16:40;;;;;;;38.97;29.83;;;;;;;14.33;100.00;101332.94;5055245;28;20029;-36
2022/06/06 02:19:06;;;;;;;39.83;30.75;;;;;;;14.37;100.00;101334.09;5054988;28;20542;-36
2022/06/06 02:21:33;;;;;;;36.97;28.35;;;;;;;14.38;100.00;101332.19;5055603;28;20029;-36
2022/06/06 02:23:59;;;;;;;37.88;28.65;;;;;;;14.29;100.00;101320.06;5054618;28;20033;-35
2022/06/06 02:26:24;;;;;;;39.83;29.45;;;;;;;14.37;100.00;101333.28;5054365;28;20033;-35
2022/06/06 02:28:50;;;;;;;37.57;29.10;;;;;;;14.40;100.00;101335.50;5055332;28;20033;-36
2022/06/06 02:31:15;;;;;;;39.40;30.02;;;;;;;14.36;100.00;101335.16;5054946;28;20272;-36
2022/06/06 02:33:41;;;;;;;40.60;30.48;;;;;;;14.37;100.00;101333.28;5054862;28;20056;-36
2022/06/06 02:36:06;;;;;;;;;;;;;;;14.42;100.00;101339.63;5055846;28;20036;-36
2022/06/06 02:38:32;;;;;;;34.83;28.55;;;;;;;14.34;100.00;101325.59;5054727;28;19958;-36
2022/06/06 02:41:07;;;;;;;;;;;;;;;14.45;100.00;101334.78;5055138;28;20040;-36
2022/06/06 02:43:35;;;;;;;38.33;29.90;;;;;;;14.37;100.00;101328.66;5054354;28;19913;-36
2022/06/06 02:46:01;;;;;;;40.20;30.50;;;;;;;14.32;100.00;101320.41;5054338;28;20025;-36
2022/06/06 02:48:27;;;;;;;36.40;29.30;;;;;;;14.34;100.00;101328.31;5054392;28;20021;-36
2022/06/06 02:50:52;;;;;;;;;;;;;;;14.41;100.00;101329.00;5055286;28;20052;-36
2022/06/06 02:53:17;;;;;;;39.23;29.63;;;;;;;14.35;100.00;101335.44;5054423;28;19923;-36
2022/06/06 02:55:43;;;;;;;40.08;29.73;;;;;;;14.36;100.00;101328.91;5054320;28;20628;-36
2022/06/06 02:58:08;;;;;;;39.63;30.20;;;;;;;14.31;100.00;101321.47;5054319;28;20033;-35
2022/06/06 03:00:34;;;;;;;41.55;30.45;;;;;;;14.24;100.00;101312.63;5053890;28;20264;-36
2022/06/06 03:03:00;;;;;;;41.53;31.38;;;;;;;14.29;100.00;101320.06;5054213;28;20032;-36
2022/06/06 03:05:33;;;;;;;;;;;;;;;14.36;100.00;101327.00;5054822;28;20025;-36
2022/06/06 03:08:05;;;;;;;45.70;32.45;;;;;;;14.22;100.00;101314.78;5053886;28;19920;-36
2022/06/06 03:10:48;;;;;;;44.58;31.95;;;;;;;14.22;100.00;101316.66;5054207;28;20408;-36
2022/06/06 03:13:55;;;;;;;42.33;31.98;;;;;;;14.26;100.00;101320.56;5054483;28;20111;-35
2022/06/06 03:22:58;;;;;;;42.60;30.60;;;;;;;14.20;100.00;101326.94;5032009;28;20071;-35
2022/06/06 03:25:52;;;;;;;41.03;30.42;;;;;;;14.26;100.00;101334.16;5031346;28;20140;-35
2022/06/06 03:28:52;;;;;;;40.00;30.05;;;;;;;14.27;100.00;101342.06;5031554;28;20034;-35
2022/06/06 03:31:23;;;;;;;40.20;30.08;;;;;;;14.30;100.00;101341.59;5031728;28;20025;-35
2022/06/06 03:34:12;;;;;;;41.47;29.90;;;;;;;14.27;100.00;101338.53;5032046;28;20132;-36
2022/06/06 03:37:00;;;;;;;37.10;28.50;;;;;;;14.13;100.00;101317.06;5031407;28;20030;-35
2022/06/06 03:39:31;;;;;;;37.38;28.65;;;;;;;14.18;100.00;101338.91;5015037;28;20079;-35
2022/06/06 03:42:25;;;;;;;38.08;27.65;;;;;;;14.23;100.00;101337.34;5031350;28;20036;-36
2022/06/06 03:44:59;;;;;;;35.88;27.35;;;;;;;14.22;100.00;101341.16;5031171;28;20514;-36
2022/06/06 03:47:56;;;;;;;35.67;27.23;;;;;;;14.21;100.00;101336.78;5031138;28;20037;-35
2022/06/06 03:50:47;;;;;;;34.33;26.33;;;;;;;14.21;100.00;101348.50;5030067;28;20187;-36
2022/06/06 03:53:27;;;;;;;33.38;24.95;;;;;;;14.20;100.00;101341.41;5053488;28;20098;-36
2022/06/06 03:56:27;;;;;;;34.17;26.08;;;;;;;14.17;100.00;101350.03;5053226;28;20037;-35
2022/06/06 03:58:53;;;;;;;29.08;23.55;;;;;;;14.14;100.00;101345.06;5053332;28;20064;-36
2022/06/06 04:01:21;;;;;;;31.88;24.63;;;;;;;14.14;100.00;101350.50;5053649;28;20020;-36
2022/06/06 04:03:48;;;;;;;30.20;24.27;;;;;;;14.03;100.00;101338.63;5053044;28;20036;-36
2022/06/06 04:06:17;;;;;;;30.27;23.75;;;;;;;14.05;100.00;101349.25;5053584;28;20052;-36
2022/06/06 04:08:42;;;;;;;28.73;22.75;;;;;;;14.03;100.00;101363.09;5052725;28;20024;-36
2022/06/06 04:11:29;;;;;;;28.10;22.67;;;;;;;14.07;100.00;101352.56;5052332;28;20033;-36
2022/06/06 04:14:12;;;;;;;26.83;20.90;;;;;;;14.03;100.00;101360.38;5052620;28;20338;-36
2022/06/06 04:16:58;;;;;;;28.50;21.88;;;;;;;13.99;100.00;101359.19;5053126;28;20028;-35
2022/06/06 04:19:26;;;;;;;27.50;21.10;;;;;;;13.97;100.00;101360.50;5052934;28;20120;-36
2022/06/06 04:22:25;;;;;;;24.70;18.80;;;;;;;13.99;100.00;101364.63;5052860;28;20025;-35
2022/06/06 04:24:58;;;;;;;25.52;19.63;;;;;;;13.95;100.00;101363.47;5052500;28;20388;-35
2022/06/06 04:27:30;;;;;;;26.63;19.10;;;;;;;13.94;100.00;101372.69;5053030;28;20036;-36
2022/06/06 04:30:13;;;;;;;24.27;18.70;;;;;;;13.83;100.00;101363.50;5052890;28;20025;-36
2022/06/06 04:33:03;;;;;;;23.70;16.95;;;;;;;13.78;100.00;101357.13;5053345;28;20029;-35
2022/06/06 04:35:47;;;;;;;22.48;16.48;;;;;;;13.79;100.00;101384.06;5053047;28;20092;-36
2022/06/06 04:38:44;;;;;;;22.88;16.92;;;;;;;13.64;100.00;101351.13;5053192;28;20127;-35
2022/06/06 04:41:46;;;;;;;20.60;16.27;;;;;;;13.78;100.00;101371.53;5052342;28;20029;-36
2022/06/06 04:44:31;;;;;;;21.13;16.23;;;;;;;13.79;100.00;101385.97;5053143;28;20025;-35
2022/06/06 04:47:07;;;;;;;20.30;16.20;;;;;;;13.75;100.00;101374.72;5052609;28;20077;-35
2022/06/06 04:49:34;;;;;;;19.75;14.63;;;;;;;13.69;100.00;101381.13;5053977;28;20116;-36
2022/06/06 04:52:02;;;;;;;18.90;15.43;;;;;;;13.70;100.00;101388.22;5057021;28;20112;-36
2022/06/06 04:54:30;;;;;;;20.80;15.32;;;;;;;13.66;100.00;101381.59;5056889;28;20029;-36
2022/06/06 04:57:03;;;;;;;18.80;15.43;;;;;;;13.69;100.00;101383.84;5055933;28;20477;-35
2022/06/06 04:59:30;;;;;;;17.38;15.57;;;;;;;13.77;100.00;101379.94;5056388;28;20067;-35
2022/06/06 05:01:58;;;;;;;22.75;16.83;;;;;;;13.69;100.00;101383.03;5057063;28;20060;-35
2022/06/06 05:04:24;;;;;;;19.15;16.10;;;;;;;13.72;100.00;101374.41;5056194;28;20421;-35
2022/06/06 05:07:06;;;;;;;18.00;16.08;;;;;;;13.80;100.00;101384.88;5056589;28;20134;-36
2022/06/06 05:10:08;;;;;;;18.55;16.10;;;;;;;13.79;100.00;101373.19;5056177;28;20173;-36
2022/06/06 05:13:05;;;;;;;18.52;15.75;;;;;;;13.83;100.00;101363.50;5056723;28;20381;-35
2022/06/06 05:15:44;;;;;;;17.63;15.35;;;;;;;13.89;100.00;101384.28;5056042;28;20045;-36
2022/06/06 05:18:19;;;;;;;18.52;15.98;;;;;;;13.91;100.00;101381.34;5056671;28;20021;-35
2022/06/06 05:20:52;;;;;;;16.92;15.20;;;;;;;13.83;100.00;101370.81;5055721;28;20466;-36
2022/06/06 05:23:17;;;;;;;17.92;15.80;;;;;;;13.92;100.00;101380.25;5056235;28;20048;-36
2022/06/06 05:26:01;;;;;;;;;;;;;;;13.94;100.00;101380.84;5056191;28;20041;-36
2022/06/06 05:28:53;;;;;;;17.13;15.32;;;;;;;13.93;100.00;101378.38;5055762;28;19916;-36
2022/06/06 05:31:48;;;;;;;16.73;15.07;;;;;;;13.97;100.00;101383.09;5056665;28;20025;-36
2022/06/06 05:34:29;;;;;;;16.05;14.50;;;;;;;13.91;100.00;101368.56;5056596;28;20413;-36
2022/06/06 05:37:03;;;;;;;16.15;14.52;;;;;;;13.98;99.43;101392.91;5055553;28;20036;-36
2022/06/06 05:39:52;;;;;;;16.63;14.95;;;;;;;14.02;99.98;101396.78;5055400;28;20028;-36
2022/06/06 05:42:26;;;;;;;16.83;15.10;;;;;;;14.01;100.00;101395.16;5055966;28;20029;-36
2022/06/06 05:45:21;;;;;;;16.02;14.40;;;;;;;14.04;100.00;101405.53;5055578;28;20432;-36
2022/06/06 05:48:05;;;;;;;16.40;14.77;;;;;;;14.02;99.95;101406.84;5054949;28;20512;-36
2022/06/06 05:50:30;;;;;;;15.60;13.70;;;;;;;14.01;100.00;101410.63;5055740;28;20091;-36
2022/06/06 05:53:27;;;;;;;14.57;13.23;;;;;;;14.01;100.00;101399.75;5055780;28;20032;-36
2022/06/06 05:56:22;;;;;;;14.38;12.60;;;;;;;14.06;99.52;101406.13;5055945;28;20444;-36
2022/06/06 05:59:18;;;;;;;13.75;12.07;;;;;;;14.06;98.21;101400.69;5055652;28;20032;-41
2022/06/06 06:02:01;;;;;;;12.05;10.95;;;;;;;14.11;97.15;101400.78;5054060;28;20485;-36
2022/06/06 06:04:29;;;;;;;11.95;10.85;;;;;;;14.06;97.60;101391.72;5055484;28;20390;-36
2022/06/06 06:07:01;;;;;;;11.73;10.63;;;;;;;14.20;97.80;101406.69;5055019;28;20029;-36
2022/06/06 06:09:38;;;;;;;10.73;9.73;;;;;;;14.13;95.21;101398.63;5055364;28;20028;-36
2022/06/06 06:12:11;;;;;;;9.52;8.63;;;;;;;14.07;94.30;101405.06;5055646;28;20107;-36
2022/06/06 06:14:52;;;;;;;9.40;8.50;;;;;;;14.14;95.27;101413.06;5054870;28;20025;-36
2022/06/06 06:17:22;;;;;;;10.80;9.20;;;;;;;14.22;94.55;101411.88;5055092;28;20078;-36
2022/06/06 06:20:23;;;;;;;9.50;8.05;;;;;;;14.25;93.38;101408.66;5054706;28;20036;-36
2022/06/06 06:23:03;;;;;;;8.45;7.57;;;;;;;14.31;94.80;101388.66;5032966;28;20048;-36
2022/06/06 06:25:33;;;;;;;9.25;8.13;;;;;;;14.41;94.69;101399.75;5032878;28;20030;-36
2022/06/06 06:28:06;;;;;;;9.98;8.10;;;;;;;14.59;94.18;101423.22;5032806;28;20163;-36
2022/06/06 06:30:47;;;;;;;8.88;7.88;;;;;;;14.51;93.20;101415.47;5032996;28;20430;-36
2022/06/06 06:33:15;;;;;;;12.75;8.05;;;;;;;14.47;93.53;101406.91;5032425;28;20041;-36
2022/06/06 06:36:06;;;;;;;9.40;8.50;;;;;;;14.46;92.48;101418.88;5032234;28;20041;-36
2022/06/06 06:39:01;;;;;;;9.35;8.45;;;;;;;14.54;93.87;101429.41;5033173;28;20033;-36
2022/06/06 06:41:59;;;;;;;9.45;7.60;;;;;;;14.60;91.86;101430.34;5032331;28;20033;-36
2022/06/06 06:44:33;;;;;;;7.72;6.93;;;;;;;14.74;92.12;101434.41;4973405;28;20043;-36
2022/06/06 06:47:09;;;;;;;9.85;6.80;;;;;;;14.70;90.72;101429.69;4973704;28;20066;-36
2022/06/06 06:49:44;;;;;;;6.80;5.97;;;;;;;14.88;90.94;101443.09;4973345;28;20049;-36
2022/06/06 06:52:32;;;;;;;6.28;5.15;;;;;;;14.92;90.62;101444.25;4973824;28;20070;-36
2022/06/06 06:55:21;;;;;;;8.30;5.03;;;;;;;14.96;89.20;101439.97;4973466;28;20043;-36
2022/06/06 06:58:05;;;;;;;5.22;4.13;;;;;;;15.00;86.78;101443.84;4973652;28;20106;-36
2022/06/06 07:00:48;;;;;;;7.68;4.32;;;;;;;14.94;86.11;101431.22;4973365;28;20339;-36
2022/06/06 07:10:27;;;;;;;6.05;3.80;;;;;;;15.05;88.70;101433.06;4896579;29;20048;-36
2022/06/06 07:13:17;;;;;;;12.65;3.33;;;;;;;15.11;84.84;101444.84;4896925;29;20095;-36
2022/06/06 07:15:43;;;;;;;5.13;3.00;;;;;;;15.16;84.24;101453.09;4897158;29;20486;-36
2022/06/06 07:18:13;;;;;;;4.70;2.88;;;;;;;15.02;84.56;101436.25;4896893;29;20119;-36
2022/06/06 07:20:42;;;;;;;4.97;2.80;;;;;;;15.19;84.82;101437.09;4916889;28;20046;-36
2022/06/06 07:23:11;;;;;;;4.25;2.50;;;;;;;15.13;80.97;101431.81;4972758;28;20078;-36
2022/06/06 07:25:41;;;;;;;3.95;2.58;;;;;;;15.27;83.15;101443.19;4972460;28;20050;-36
2022/06/06 07:28:09;;;;;;;3.28;2.10;;;;;;;15.30;80.91;101443.53;4972580;28;20511;-36
2022/06/06 07:30:39;;;;;;;3.88;2.00;;;;;;;15.27;79.30;101435.03;4972486;28;20065;-36
2022/06/06 07:33:31;;;;;;;3.47;1.80;;;;;;;15.17;82.18;101424.78;4972499;28;20035;-36
2022/06/06 07:36:08;;;;;;;4.00;1.80;;;;;;;15.24;79.32;101462.78;4972490;28;20474;-36
2022/06/06 07:39:01;;;;;;;3.17;1.95;;;;;;;15.34;81.84;101450.16;5045489;28;20143;-36
2022/06/06 07:41:36;;;;;;;4.50;1.50;;;;;;;15.38;77.68;101455.94;5051016;28;20051;-36
2022/06/06 07:44:30;;;;;;;2.78;1.70;;;;;;;15.34;79.57;101452.88;5052885;28;20033;-36
2022/06/06 07:47:12;;;;;;;3.42;1.48;;;;;;;15.27;79.79;101460.38;5052981;28;20486;-36
2022/06/06 07:49:47;;;;;;;2.85;1.30;;;;;;;15.45;80.59;101472.94;5052748;28;20047;-35
2022/06/06 07:52:28;;;;;;;2.22;1.50;;;;;;;15.61;78.56;101472.09;5053831;28;20450;-36
2022/06/06 07:55:04;;;;;;;4.07;1.73;;;;;;;15.74;77.30;101468.25;5052870;28;20049;-36
2022/06/06 07:58:24;;;;;;;1.60;1.35;;;;;;;15.80;78.57;101469.94;5053018;28;20119;-36
2022/06/06 08:01:25;;;;;;;3.70;1.40;;;;;;;15.92;78.07;101472.59;5030774;28;20175;-36
2022/06/06 08:03:55;;;;;;;2.53;1.60;;;;;;;15.86;77.58;101466.25;4972481;28;20045;-36
2022/06/06 08:06:33;;;;;;;2.75;1.20;;;;;;;15.77;77.24;101432.31;4972241;28;20451;-36
2022/06/06 08:09:13;;;;;;;2.60;1.40;;;;;;;16.09;77.45;101451.53;4972023;28;20070;-35
2022/06/06 08:11:47;;;;;;;3.20;1.92;;;;;;;16.10;76.85;101453.19;4972393;28;20023;-37
2022/06/06 08:14:27;;;;;;;2.10;1.40;;;;;;;15.95;76.60;101464.72;4972146;28;20508;-37
2022/06/06 08:17:11;;;;;;;4.28;1.30;;;;;;;15.87;77.93;101469.78;4971950;28;20038;-36
2022/06/06 08:19:39;;;;;;;2.65;1.40;;;;;;;15.80;78.65;101461.78;4971882;28;20031;-36
2022/06/06 08:22:05;;;;;;;3.90;1.60;;;;;;;15.63;77.20;101460.97;4972061;28;20041;-34
2022/06/06 08:24:38;;;;;;;4.63;1.50;;;;;;;15.69;78.61;101468.97;4971039;28;20035;-35
2022/06/06 08:27:06;;;;;;;2.65;1.50;;;;;;;15.69;78.39;101455.34;4971869;28;20178;-36
2022/06/06 08:29:36;;;;;;;2.70;1.35;;;;;;;15.69;77.86;101432.72;4971693;28;20031;-35
2022/06/06 08:32:01;;;;;;;3.63;1.27;;;;;;;16.01;77.38;101452.00;4972113;28;20478;-35
2022/06/06 08:34:27;;;;;;;2.50;1.25;;;;;;;16.15;77.31;101453.28;4972145;28;20047;-36
2022/06/06 08:36:52;;;;;;;;;;;;;;;16.32;77.74;101449.66;4972010;28;20121;-36
2022/06/06 08:39:55;;;;;;;2.90;1.30;;;;;;;16.43;76.92;101444.03;4971814;28;19914;-36
2022/06/06 08:42:23;;;;;;;2.25;1.20;;;;;;;16.61;75.46;101440.16;5052520;28;20040;-35
2022/06/06 08:44:56;;;;;;;1.83;1.05;;;;;;;16.86;75.05;101428.69;5052488;28;20025;-36
2022/06/06 08:47:33;;;;;;;2.58;1.10;;;;;;;16.91;72.50;101423.28;5052524;28;20052;-36
2022/06/06 08:53:00;;;;;;;2.35;1.10;;;;;;;17.41;72.71;101426.69;5052372;28;20186;-36
2022/06/06 08:55:48;;;;;;;2.70;1.20;;;;;;;17.34;72.08;101428.84;5052332;28;20107;-37
2022/06/06 08:58:24;;;;;;;;;;;;;;;17.53;74.63;101423.78;5052905;28;20041;-36
2022/06/06 09:01:06;;;;;;;2.70;1.30;;;;;;;17.53;74.04;101416.41;5052821;28;20293;-36
2022/06/06 09:03:49;;;;;;;1.98;1.00;;;;;;;17.63;72.32;101423.84;5052792;28;20028;-36
2022/06/06 09:06:36;;;;;;;3.05;1.08;;;;;;;17.82;71.40;101429.72;5052642;28;20068;-36
2022/06/06 09:09:23;;;;;;;2.50;0.95;;;;;;;17.93;69.46;101434.16;5052569;28;20024;-36
2022/06/06 09:12:26;;;;;;;2.17;0.90;;;;;;;17.66;69.47;101434.22;5052483;28;20484;-36
2022/06/06 09:15:34;;;;;;;3.38;1.02;;;;;;;17.54;70.95;101425.41;5052852;28;20059;-36
2022/06/06 09:18:41;;;;;;;1.88;0.90;;;;;;;17.19;69.97;101441.28;5052601;28;20028;-36
2022/06/06 09:21:33;;;;;;;3.35;1.20;;;;;;;17.21;70.19;101422.72;5030449;28;20390;-36
2022/06/06 09:24:20;;;;;;;3.05;1.50;;;;;;;17.23;70.21;101417.81;5030747;28;20079;-36
2022/06/06 09:27:16;;;;;;;3.33;1.40;;;;;;;17.27;70.19;101428.22;5030053;28;20064;-36
2022/06/06 09:30:19;;;;;;;3.55;2.40;;;;;;;17.20;71.27;101426.53;5030099;28;20025;-36
2022/06/06 09:33:09;;;;;;;3.17;2.30;;;;;;;17.35;69.42;101425.00;5030322;28;20088;-36
2022/06/06 09:35:46;;;;;;;4.32;2.00;;;;;;;17.48;69.73;101400.78;5031887;28;20036;-36
2022/06/06 09:38:39;;;;;;;4.35;1.95;;;;;;;17.35;67.68;101400.41;5034002;28;20084;-36
2022/06/06 09:41:25;;;;;;;2.75;1.65;;;;;;;17.29;66.88;101405.00;5033754;28;20029;-36
2022/06/06 09:44:14;;;;;;;3.08;1.50;;;;;;;17.58;66.33;101399.19;5034043;28;20037;-36
2022/06/06 09:46:40;;;;;;;3.03;1.40;;;;;;;17.75;65.22;101399.84;5034111;28;20038;-36
2022/06/06 09:49:17;;;;;;;;;;;;;;;18.05;67.55;101390.16;5033604;28;20106;-36
2022/06/06 09:52:12;;;;;;;2.25;1.10;;;;;;;18.27;64.30;101404.47;5033106;28;19959;-36
2022/06/06 10:01:26;;;;;;;2.88;1.05;;;;;;;18.80;60.91;101387.91;5055876;28;20036;-36
2022/06/06 10:04:26;;;;;;;2.50;1.13;;;;;;;18.82;59.63;101393.94;5055308;28;20465;-36
2022/06/06 10:07:03;;;;;;;1.50;1.10;;;;;;;18.70;59.53;101372.28;5055946;28;20362;-36
2022/06/06 10:09:43;;;;;;;2.78;0.90;;;;;;;18.58;60.16;101366.19;5054865;28;20512;-36
2022/06/06 10:12:32;;;;;;;2.38;0.80;;;;;;;18.70;61.38;101372.28;5055189;28;20025;-36
2022/06/06 10:15:19;;;;;;;2.35;1.05;;;;;;;18.69;60.70;101362.41;5055359;28;20025;-36
2022/06/06 10:17:44;;;;;;;;;;;;;;;19.05;63.24;101376.94;5055796;28;20056;-36
2022/06/06 10:20:31;;;;;;;2.40;0.80;;;;;;;19.25;60.17;101370.63;5054908;28;20034;-35
2022/06/06 10:23:15;;;;;;;;;;;;;;;19.64;60.42;101370.84;5055094;28;20559;-36
2022/06/06 10:25:59;;;;;;;2.00;0.93;;;;;;;19.78;59.07;101366.41;5054847;28;19909;-35
2022/06/06 10:28:40;;;;;;;3.55;1.13;;;;;;;19.70;58.17;101350.53;5054158;28;20471;-36
2022/06/06 10:31:08;;;;;;;2.65;0.80;;;;;;;19.68;56.90;101365.63;5054648;28;20036;-36
2022/06/06 10:33:55;;;;;;;1.52;0.63;;;;;;;19.35;55.97;101364.31;5055102;28;20040;-36
2022/06/06 10:36:35;;;;;;;1.77;0.80;;;;;;;19.10;57.16;101370.66;5055130;28;20059;-37
2022/06/06 10:39:15;;;;;;;1.52;0.70;;;;;;;19.00;58.51;101366.00;5054910;28;20028;-37
2022/06/06 10:42:34;;;;;;;1.70;0.70;;;;;;;19.11;60.84;101366.81;5054938;28;20021;-37
2022/06/06 10:45:14;;;;;;;2.60;0.70;;;;;;;19.38;60.00;101369.25;5032470;28;20533;-37
2022/06/06 10:47:54;;;;;;;3.63;0.80;;;;;;;19.69;58.07;101364.53;5031217;28;20095;-35
2022/06/06 10:50:30;;;;;;;2.90;0.75;;;;;;;19.70;57.47;101366.16;5031796;28;20057;-37
2022/06/06 10:53:34;;;;;;;1.90;0.77;;;;;;;19.86;57.00;101367.75;5031885;28;20048;-37
2022/06/06 10:56:28;;;;;;;2.20;0.60;;;;;;;19.44;56.86;101374.44;5032291;28;20389;-36
2022/06/06 10:59:12;;;;;;;2.58;0.60;;;;;;;19.21;54.96;101378.56;5031814;28;20037;-36
2022/06/06 11:02:02;;;;;;;2.10;0.50;;;;;;;19.28;55.42;101376.38;5032155;28;20113;-36
2022/06/06 11:04:54;;;;;;;2.58;0.75;;;;;;;19.41;57.62;101369.50;5032598;28;20133;-36
2022/06/06 11:07:57;;;;;;;1.52;0.60;;;;;;;19.69;57.74;101361.78;5032116;28;20105;-36
2022/06/06 11:10:53;;;;;;;2.00;0.73;;;;;;;19.86;56.35;101344.97;5031769;28;20036;-36
2022/06/06 11:13:29;;;;;;;2.97;0.80;;;;;;;19.78;56.12;101328.00;5031378;28;20120;-36
2022/06/06 11:16:06;;;;;;;2.83;0.70;;;;;;;20.03;56.23;101351.75;5032200;28;20037;-36
2022/06/06 11:18:56;;;;;;;3.58;0.70;;;;;;;20.08;56.48;101339.94;5041641;28;20047;-36
2022/06/06 11:21:47;;;;;;;1.27;0.60;;;;;;;20.29;55.89;101337.88;5053834;28;20112;-36
2022/06/06 11:24:51;;;;;;;1.55;0.65;;;;;;;20.29;56.86;101340.63;5053549;28;20113;-36
2022/06/06 11:28:04;;;;;;;2.10;0.70;;;;;;;20.37;56.10;101330.97;5031707;28;20069;-36
2022/06/06 11:30:53;;;;;;;2.50;0.68;;;;;;;20.22;54.86;101329.97;5026051;28;20037;-36
2022/06/06 11:33:49;;;;;;;2.30;0.60;;;;;;;20.06;54.88;101322.94;5031803;28;20116;-36
2022/06/06 11:36:49;;;;;;;1.15;0.50;;;;;;;20.18;56.73;101337.13;5031680;28;20143;-36
2022/06/06 11:39:35;;;;;;;1.73;0.70;;;;;;;20.06;53.25;101325.69;5031391;28;20048;-36
2022/06/06 11:42:34;;;;;;;2.63;0.60;;;;;;;20.28;54.29;101326.06;5031196;28;20100;-36
2022/06/06 11:45:25;;;;;;;1.92;0.73;;;;;;;20.19;54.84;101325.03;5018128;28;20486;-36
2022/06/06 11:48:07;;;;;;;3.38;0.60;;;;;;;19.85;56.39;101324.13;4972549;28;20452;-36
2022/06/06 11:51:06;;;;;;;2.10;0.50;;;;;;;19.39;55.63;101329.75;4972236;28;20062;-36
2022/06/06 11:53:46;;;;;;;1.15;0.57;;;;;;;18.92;57.17;101341.88;4972957;28;20120;-36
2022/06/06 11:56:45;;;;;;;3.13;0.73;;;;;;;18.67;58.76;101340.75;4972815;28;20155;-36
2022/06/06 11:59:28;;;;;;;2.65;0.73;;;;;;;18.45;61.16;101354.69;4972377;28;20042;-36
2022/06/06 12:02:16;;;;;;;1.95;0.60;;;;;;;18.39;61.99;101365.88;4972002;28;20522;-36
2022/06/06 12:05:03;;;;;;;3.47;0.63;;;;;;;18.21;61.90;101367.22;4972453;28;20118;-36
2022/06/06 12:07:31;;;;;;;1.90;0.60;;;;;;;18.12;61.44;101366.94;4972388;28;20106;-36
2022/06/06 12:10:09;;;;;;;1.77;0.63;;;;;;;18.01;62.17;101365.25;4971989;28;20030;-36
2022/06/06 12:12:56;;;;;;;2.00;0.68;;;;;;;17.92;62.37;101354.00;4972422;28;20049;-36
2022/06/06 12:16:08;;;;;;;2.35;1.08;;;;;;;17.96;62.62;101357.03;4972069;28;20073;-36
2022/06/06 12:18:49;;;;;;;2.22;0.82;;;;;;;17.85;62.28;101358.06;4969942;28;20049;-36
2022/06/06 12:21:33;;;;;;;2.03;1.33;;;;;;;17.77;62.93;101375.00;4972215;28;20034;-36
2022/06/06 12:24:14;;;;;;;2.35;0.63;;;;;;;17.65;66.21;101373.25;4982990;28;20055;-36
2022/06/06 12:26:48;;;;;;;1.80;0.70;;;;;;;17.60;69.27;101373.22;5052441;28;20543;-36
2022/06/06 12:29:32;;;;;;;5.53;0.88;;;;;;;17.58;70.05;101369.13;5051208;28;20040;-36
2022/06/06 12:32:21;;;;;;;1.70;0.70;;;;;;;17.70;70.46;101369.72;5053109;28;20109;-36
2022/06/06 12:34:52;;;;;;;2.92;0.90;;;;;;;17.73;70.22;101358.28;5052726;28;20052;-36
2022/06/06 12:37:46;;;;;;;2.53;0.80;;;;;;;17.59;69.45;101352.44;5052900;28;20115;-36
2022/06/06 12:40:37;;;;;;;2.42;0.90;;;;;;;17.60;69.78;101359.53;5052105;28;20370;-36